Weather observations for the past three days for
Beaver Island, Beaver Island Airport
| Date | Time (edt) | Wind (mph) | Vis. (mi.) | Weather | Sky Cond. | Temperature (ºF) | Relative Humidity | Wind Chill (°F) | Heat Index (°F) | Pressure | Precipitation (in) | ||||||
|---|---|---|---|---|---|---|---|---|---|---|---|---|---|---|---|---|---|
| Air | Dwpt | 6 hour | altimeter (in) | sea level (mb) | 1 hr | 3 hr | 6 hr | ||||||||||
| Max. | Min. | ||||||||||||||||
| 10 | 10:35 | W 12 | 10.00 | Overcast | FEW080 OVC120 | 44.6 | 32 | 61% | 39 | 30 | 0.0 | ||||||
| 10 | 10:15 | W 12 | 10.00 | Overcast | OVC120 | 44.6 | 32 | 61% | 39 | 29.99 | 0.0 | ||||||
| 10 | 09:55 | W 10 | 10.00 | Overcast | OVC120 | 44.6 | 33.8 | 66% | 40 | 29.99 | 0.0 | ||||||
| 10 | 09:35 | W 13 G 18 | 10.00 | Overcast | OVC120 | 42.8 | 32 | 66% | 37 | 29.99 | 0.0 | ||||||
| 10 | 09:15 | W 12 | 10.00 | Partly Cloudy | SCT120 | 44.6 | 32 | 61% | 39 | 29.98 | 0.0 | ||||||
| 10 | 08:55 | W 8 | 10.00 | Fair | CLR | 42.8 | 33.8 | 71% | 39 | 29.98 | 0.0 | ||||||
| 10 | 08:35 | W 10 | 10.00 | Fair | CLR | 42.8 | 33.8 | 71% | 38 | 29.98 | 0.0 | ||||||
| 10 | 08:15 | W 8 | 10.00 | Fair | CLR | 41 | 33.8 | 76% | 36 | 29.97 | 0.0 | ||||||
| 10 | 07:55 | W 6 | 10.00 | Fair | CLR | 41 | 33.8 | 40.5 | 34.7 | 76% | 38 | 29.97 | 0.0 | ||||
| 10 | 07:35 | W 5 | 10.00 | Fair | CLR | 39.2 | 33.8 | 81% | 36 | 29.96 | 0.0 | ||||||
| 10 | 07:15 | W 5 | 10.00 | Fair | CLR | 37.4 | 33.8 | 87% | 34 | 29.95 | 0.0 | ||||||
| 10 | 06:55 | SW 3 | 10.00 | Partly Cloudy | SCT110 | 35.6 | 32 | 87% | 29.94 | 0.0 | |||||||
| 10 | 06:35 | SW 5 | 10.00 | Overcast | OVC110 | 35.6 | 32 | 87% | 32 | 29.94 | 0.0 | ||||||
| 10 | 06:15 | W 5 | 10.00 | Mostly Cloudy | BKN110 | 35.6 | 30.2 | 81% | 32 | 29.93 | 0.0 | ||||||
| 10 | 05:55 | W 5 | 10.00 | A Few Clouds | FEW110 | 35.6 | 30.2 | 81% | 32 | 29.92 | 0.0 | ||||||
| 10 | 05:35 | W 5 | 10.00 | A Few Clouds | FEW110 | 37.4 | 30.2 | 75% | 34 | 29.91 | 0.0 | ||||||
| 10 | 05:15 | W 5 | 10.00 | Fair | CLR | 37.4 | 30.2 | 75% | 34 | 29.91 | 0.0 | ||||||
| 10 | 04:55 | W 7 | 10.00 | A Few Clouds | FEW120 | 37.4 | 30.2 | 75% | 33 | 29.9 | 0.0 | ||||||
| 10 | 04:35 | W 6 | 10.00 | Partly Cloudy | SCT110 | 37.4 | 32 | 81% | 33 | 29.89 | 0.0 | ||||||
| 10 | 04:15 | W 8 | 10.00 | Overcast | OVC100 | 39.2 | 32 | 75% | 34 | 29.89 | 0.0 | ||||||
| 10 | 03:55 | W 7 | 10.00 | Mostly Cloudy | BKN110 | 39.2 | 32 | 75% | 35 | 29.89 | 0.0 | ||||||
| 10 | 03:35 | NW 7 | 10.00 | A Few Clouds | FEW100 | 39.2 | 32 | 75% | 35 | 29.88 | 0.0 | ||||||
| 10 | 03:15 | W 7 | 10.00 | Fair | CLR | 39.2 | 30.2 | 70% | 35 | 29.87 | 0.0 | ||||||
| 10 | 02:55 | W 8 | 10.00 | A Few Clouds | FEW095 | 37.4 | 30.2 | 75% | 32 | 29.86 | 0.0 | ||||||
| 10 | 02:35 | W 6 | 10.00 | Mostly Cloudy | BKN095 | 39.2 | 30.2 | 70% | 36 | 29.86 | 0.0 | ||||||
| 10 | 02:15 | W 6 | 10.00 | A Few Clouds | FEW095 | 37.4 | 30.2 | 75% | 33 | 29.86 | 0.0 | ||||||
| 10 | 01:55 | W 5 | 10.00 | Mostly Cloudy | BKN095 | 35.6 | 30.2 | 45.1 | 30.2 | 81% | 32 | 29.86 | 0.0 | ||||
| 10 | 01:35 | W 5 | 10.00 | Mostly Cloudy | BKN095 | 35.6 | 30.2 | 81% | 32 | 29.85 | 0.0 | ||||||
| 10 | 01:15 | W 6 | 10.00 | Fair | CLR | 35.6 | 30.2 | 81% | 31 | 29.85 | 0.0 | ||||||
| 10 | 00:55 | W 5 | 10.00 | Fair | CLR | 32 | 28.4 | 87% | 28 | 29.84 | 0.0 | ||||||
| 10 | 00:35 | W 2 | 10.00 | Fair | CLR | 33.8 | 28.4 | 81% | 29.84 | 0.0 | |||||||
| 10 | 00:15 | SW 2 | 10.00 | Fair | CLR | 37.4 | 32 | 81% | 29.84 | 0.0 | |||||||
| 09 | 23:55 | Vrbl 3 | 10.00 | Fair | CLR | 39.2 | 32 | 75% | 29.83 | 0.0 | |||||||
| 09 | 23:35 | NW 3 | 10.00 | Partly Cloudy | SCT090 | 39.2 | 32 | 75% | 29.83 | 0.0 | |||||||
| 09 | 23:15 | NW 5 | 10.00 | Overcast | OVC090 | 41 | 30.2 | 66% | 38 | 29.83 | 0.0 | ||||||
| 09 | 22:55 | NW 7 | 10.00 | Overcast | OVC090 | 41 | 30.2 | 66% | 37 | 29.82 | 0.0 | ||||||
| 09 | 22:35 | NW 8 G 16 | 10.00 | Overcast | OVC090 | 41 | 30.2 | 66% | 36 | 29.82 | 0.0 | ||||||
| 09 | 22:15 | NW 10 G 20 | 10.00 | Overcast | OVC080 | 42.8 | 28.4 | 57% | 38 | 29.82 | 0.0 | ||||||
| 09 | 21:35 | NW 10 | 10.00 | Overcast | OVC080 | 42.8 | 30.2 | 61% | 38 | 29.8 | 0.0 | ||||||
| 09 | 21:15 | NW 9 G 20 | 10.00 | Overcast | OVC080 | 42.8 | 30.2 | 61% | 38 | 29.79 | 0.0 | ||||||
| 09 | 20:55 | NW 10 G 20 | 10.00 | Mostly Cloudy | BKN080 | 42.8 | 30.2 | 61% | 38 | 29.77 | 0.0 | ||||||
| 09 | 20:35 | NW 12 G 21 | 10.00 | A Few Clouds | FEW080 | 42.8 | 32 | 66% | 37 | 29.76 | 0.0 | ||||||
| 09 | 20:15 | NW 10 G 16 | 10.00 | Fair | CLR | 44.6 | 32 | 61% | 40 | 29.75 | 0.0 | ||||||
| 09 | 19:55 | NW 10 G 21 | 10.00 | Fair | CLR | 44.6 | 32 | 57.9 | 45.1 | 61% | 40 | 29.74 | 0.0 | ||||
| 09 | 19:35 | NW 12 G 16 | 10.00 | Fair | CLR | 44.6 | 32 | 61% | 39 | 29.73 | 0.0 | ||||||
| 09 | 19:15 | NW 14 G 20 | 10.00 | A Few Clouds | FEW080 | 46.4 | 32 | 57% | 41 | 29.72 | 0.0 | ||||||
| 09 | 18:55 | NW 13 G 20 | 10.00 | Partly Cloudy | SCT080 | 48.2 | 32 | 54% | 43 | 29.71 | 0.0 | ||||||
| 09 | 18:35 | NW 15 G 22 | 10.00 | A Few Clouds | FEW080 | 48.2 | 32 | 54% | 43 | 29.69 | 0.0 | ||||||
| 09 | 18:15 | NW 13 G 26 | 10.00 | A Few Clouds | FEW080 | 48.2 | 32 | 54% | 43 | 29.68 | 0.0 | ||||||
| 09 | 17:55 | NW 15 G 26 | 10.00 | Partly Cloudy | SCT075 SCT090 | 50 | 32 | 50% | 45 | 29.67 | 0.0 | ||||||
| 09 | 17:35 | NW 13 G 17 | 10.00 | Overcast | OVC075 | 50 | 32 | 50% | 46 | 29.65 | 0.0 | ||||||
| 09 | 17:15 | NW 12 G 18 | 10.00 | Mostly Cloudy | BKN075 BKN100 | 50 | 30.2 | 47% | 46 | 29.64 | 0.0 | ||||||
| 09 | 16:55 | NW 10 G 17 | 10.00 | Overcast | BKN075 OVC100 | 51.8 | 28.4 | 41% | 29.62 | 0.0 | |||||||
| 09 | 16:35 | NW 13 G 18 | 10.00 | Mostly Cloudy | FEW065 BKN075 BKN090 | 53.6 | 24.8 | 33% | 29.61 | 0.0 | |||||||
| 09 | 16:15 | NW 13 G 17 | 10.00 | Mostly Cloudy | BKN075 BKN085 BKN100 | 53.6 | 26.6 | 35% | 29.61 | 0.0 | |||||||
| 09 | 15:55 | NW 13 G 18 | 10.00 | Overcast | OVC085 | 53.6 | 26.6 | 35% | 29.6 | 0.0 | |||||||
| 09 | 15:35 | NW 10 | 10.00 | Overcast | FEW060 BKN075 OVC080 | 51.8 | 26.6 | 38% | 29.59 | 0.0 | |||||||
| 09 | 15:15 | Vrbl 6 | 10.00 | Overcast | FEW060 OVC075 | 51.8 | 32 | 47% | 29.58 | 0.0 | |||||||
| 09 | 14:55 | W 9 G 17 | 10.00 | Overcast | OVC070 | 57.2 | 30.2 | 36% | 29.56 | 0.0 | |||||||
| 09 | 14:35 | W 10 | 10.00 | Overcast | FEW060 SCT080 OVC085 | 55.4 | 30.2 | 38% | 29.55 | 0.0 | |||||||
| 09 | 14:15 | W 8 | 10.00 | Overcast | OVC080 | 53.6 | 30.2 | 41% | 29.54 | 0.0 | |||||||
| 09 | 13:55 | W 6 | 10.00 | Overcast | SCT080 OVC090 | 50 | 33.8 | 51.6 | 44.1 | 54% | 48 | 29.54 | 0.0 | ||||
| 09 | 13:35 | W 9 | 10.00 | Overcast | FEW070 OVC090 | 50 | 35.6 | 58% | 47 | 29.53 | 0.0 | ||||||
| 09 | 13:15 | W 10 | 10.00 | Overcast | OVC090 | 50 | 35.6 | 58% | 46 | 29.52 | 0.0 | ||||||
| 09 | 12:55 | W 13 | 10.00 | Overcast | OVC090 | 48.2 | 35.6 | 62% | 43 | 29.52 | 0.0 | ||||||
| 09 | 12:35 | W 13 | 10.00 | Overcast | FEW075 OVC090 | 48.2 | 35.6 | 62% | 43 | 29.51 | 0.0 | ||||||
| 09 | 12:15 | SW 9 | 10.00 | Overcast | OVC090 | 50 | 35.6 | 58% | 47 | 29.5 | 0.0 | ||||||
| 09 | 11:55 | W 13 | 10.00 | Overcast | BKN080 OVC090 | 50 | 37.4 | 62% | 46 | 29.5 | 0.0 | ||||||
| 09 | 11:35 | SW 8 | 10.00 | Overcast | OVC080 | 48.2 | 37.4 | 66% | 45 | 29.49 | 0.0 | ||||||
| 09 | 11:15 | W 7 | 10.00 | Overcast | OVC090 | 48.2 | 39.2 | 71% | 46 | 29.48 | 0.0 | ||||||
| 09 | 10:55 | W 10 | 10.00 | Mostly Cloudy | BKN100 BKN120 | 46.4 | 39.2 | 76% | 42 | 29.47 | 0.0 | ||||||
| 09 | 10:35 | W 10 | 10.00 | Mostly Cloudy | SCT090 BKN120 | 44.6 | 37.4 | 76% | 40 | 29.45 | 0.0 | ||||||
| 09 | 10:15 | SW 12 | 10.00 | Overcast | OVC100 | 44.6 | 37.4 | 76% | 39 | 29.46 | 0.0 | ||||||
| 09 | 09:55 | W 9 | 10.00 | Overcast | OVC100 | 46.4 | 39.2 | 76% | 42 | 29.45 | 0.0 | ||||||
| 09 | 09:35 | SW 10 G 20 | 10.00 | Overcast | FEW075 OVC090 | 46.4 | 39.2 | 76% | 42 | 29.44 | 0.0 | ||||||
| 09 | 09:15 | SW 13 G 18 | 10.00 | Overcast | OVC090 | 46.4 | 39.2 | 76% | 41 | 29.45 | 0.0 | ||||||
| 09 | 08:55 | SW 12 | 10.00 | Overcast | SCT080 OVC090 | 48.2 | 39.2 | 71% | 44 | 29.44 | 0.0 | ||||||
| 09 | 08:35 | SW 12 G 20 | 10.00 | Overcast | FEW065 BKN090 OVC110 | 46.4 | 39.2 | 76% | 42 | 29.44 | 0.0 | ||||||
| 09 | 08:15 | SW 16 | 10.00 | Light Rain | FEW050 FEW070 OVC080 | 44.6 | 39.2 | 81% | 38 | 29.45 | 0.0 | ||||||
| 09 | 07:55 | SW 10 G 17 | 10.00 | Mostly Cloudy | FEW065 BKN090 BKN110 | 51.8 | 39.2 | 53.8 | 39.6 | 62% | 29.44 | 0.0 | |||||
| 09 | 07:35 | SW 8 | 10.00 | Mostly Cloudy | BKN110 | 51.8 | 37.4 | 58% | 29.43 | 0.0 | |||||||
| 09 | 07:15 | SW 10 G 16 | 10.00 | Overcast | OVC100 | 51.8 | 35.6 | 54% | 29.44 | 0.0 | |||||||
| 09 | 06:55 | SW 10 | 10.00 | Mostly Cloudy | BKN100 | 51.8 | 35.6 | 54% | 29.44 | 0.0 | |||||||
| 09 | 06:35 | SW 9 | 10.00 | Mostly Cloudy | BKN100 | 51.8 | 35.6 | 54% | 29.44 | 0.0 | |||||||
| 09 | 06:15 | S 7 | 10.00 | Overcast | OVC100 | 51.8 | 35.6 | 54% | 29.45 | 0.0 | |||||||
| 09 | 05:55 | S 10 G 17 | 10.00 | Overcast | OVC100 | 53.6 | 33.8 | 47% | 29.45 | 0.0 | |||||||
| 09 | 05:35 | S 10 G 18 | 10.00 | Overcast | OVC100 | 53.6 | 35.6 | 51% | 29.46 | 0.0 | |||||||
| 09 | 05:15 | S 15 G 22 | 10.00 | Overcast | OVC100 | 53.6 | 35.6 | 51% | 29.47 | 0.0 | |||||||
| 09 | 04:55 | SW 12 G 23 | 10.00 | Mostly Cloudy | BKN110 | 51.8 | 32 | 47% | 29.47 | 0.0 | |||||||
| 09 | 04:35 | S 10 G 18 | 10.00 | Fair | CLR | 51.8 | 30.2 | 44% | 29.48 | 0.0 | |||||||
| 09 | 04:15 | SW 12 G 18 | 10.00 | Fair | CLR | 51.8 | 28.4 | 41% | 29.49 | 0.0 | |||||||
| 09 | 03:55 | S 10 G 17 | 10.00 | Fair | CLR | 51.8 | 28.4 | 41% | 29.5 | 0.0 | |||||||
| 09 | 03:35 | S 9 | 10.00 | Fair | CLR | 51.8 | 26.6 | 38% | 29.5 | 0.0 | |||||||
| 09 | 03:15 | S 8 | 10.00 | Fair | CLR | 50 | 26.6 | 40% | 47 | 29.51 | 0.0 | ||||||
| 09 | 02:55 | S 7 | 10.00 | Fair | CLR | 46.4 | 28.4 | 50% | 43 | 29.52 | 0.0 | ||||||
| 09 | 02:35 | SE 2 | 10.00 | Fair | CLR | 42.8 | 32 | 66% | 29.54 | 0.0 | |||||||
| 09 | 02:15 | SE 6 | 10.00 | A Few Clouds | FEW120 | 42.8 | 32 | 66% | 40 | 29.55 | 0.0 | ||||||
| 09 | 01:55 | SE 6 | 10.00 | A Few Clouds | FEW110 | 41 | 32 | 52 | 41.5 | 70% | 38 | 29.56 | 0.0 | ||||
| 09 | 01:35 | E 6 | 10.00 | Overcast | BKN090 OVC110 | 42.8 | 32 | 66% | 40 | 29.57 | 0.0 | ||||||
| 09 | 01:15 | E 5 | 10.00 | Overcast | FEW080 OVC090 | 44.6 | 32 | 61% | 43 | 29.58 | 0.0 | ||||||
| 09 | 00:55 | E 6 | 10.00 | Overcast | FEW080 OVC090 | 44.6 | 32 | 61% | 42 | 29.59 | 0.0 | ||||||
| 09 | 00:35 | E 8 | 10.00 | Overcast | OVC100 | 42.8 | 32 | 66% | 39 | 29.6 | 0.0 | ||||||
| 09 | 00:15 | E 7 | 10.00 | Overcast | OVC100 | 42.8 | 30.2 | 61% | 39 | 29.61 | 0.0 | ||||||
| 08 | 23:55 | E 6 | 10.00 | Overcast | OVC100 | 44.6 | 32 | 61% | 42 | 29.62 | 0.0 | ||||||
| 08 | 23:35 | E 5 | 10.00 | Overcast | OVC100 | 46.4 | 30.2 | 53% | 45 | 29.62 | 0.0 | ||||||
| 08 | 23:15 | E 5 | 10.00 | Overcast | OVC100 | 48.2 | 28.4 | 46% | 47 | 29.64 | 0.0 | ||||||
| 08 | 22:55 | S 5 | 10.00 | Overcast | OVC090 | 50 | 28.4 | 43% | 49 | 29.64 | 0.0 | ||||||
| 08 | 22:35 | S 3 | 10.00 | Overcast | OVC090 | 48.2 | 26.6 | 43% | 29.64 | 0.0 | |||||||
| 08 | 22:15 | S 5 | 10.00 | Overcast | OVC090 | 48.2 | 26.6 | 43% | 47 | 29.64 | 0.0 | ||||||
| 08 | 21:55 | Vrbl 1 | 10.00 | Overcast | OVC090 | 48.2 | 30.2 | 50% | 29.65 | 0.0 | |||||||
| 08 | 21:35 | S 5 | 10.00 | Overcast | OVC090 | 48.2 | 26.6 | 43% | 47 | 29.64 | 0.0 | ||||||
| 08 | 21:15 | Vrbl 2 | 10.00 | Overcast | OVC090 | 50 | 26.6 | 40% | 29.65 | 0.0 | |||||||
| 08 | 20:55 | Vrbl 5 | 10.00 | Overcast | OVC090 | 50 | 26.6 | 40% | 49 | 29.64 | 0.0 | ||||||
| 08 | 20:35 | SW 6 | 10.00 | Overcast | OVC090 | 50 | 26.6 | 40% | 48 | 29.65 | 0.0 | ||||||
| 08 | 20:15 | W 6 | 10.00 | Overcast | OVC090 | 50 | 28.4 | 43% | 48 | 29.65 | 0.0 | ||||||
| 08 | 19:55 | W 7 | 10.00 | Overcast | OVC090 | 51.8 | 26.6 | 56.8 | 49.5 | 38% | 29.65 | 0.0 | |||||
| 08 | 19:35 | SW 13 G 20 | 10.00 | Overcast | OVC090 | 51.8 | 24.8 | 35% | 29.65 | 0.0 | |||||||
| 08 | 19:15 | SW 9 G 17 | 10.00 | Overcast | OVC100 | 51.8 | 24.8 | 35% | 29.66 | 0.0 | |||||||
| 08 | 18:55 | SW 5 | 10.00 | Mostly Cloudy | BKN100 | 51.8 | 28.4 | 41% | 29.67 | 0.0 | |||||||
| 08 | 18:35 | SW 9 | 10.00 | A Few Clouds | FEW090 | 51.8 | 28.4 | 41% | 29.68 | 0.0 | |||||||
| 08 | 18:15 | W 13 G 18 | 10.00 | A Few Clouds | FEW090 | 53.6 | 28.4 | 38% | 29.68 | 0.0 | |||||||
| 08 | 17:55 | SW 13 | 10.00 | A Few Clouds | FEW100 | 55.4 | 28.4 | 36% | 29.68 | 0.0 | |||||||
| 08 | 17:35 | SW 8 | 10.00 | Fair | CLR | 55.4 | 28.4 | 36% | 29.68 | 0.0 | |||||||
| 08 | 17:15 | SW 12 | 10.00 | Fair | CLR | 55.4 | 28.4 | 36% | 29.69 | 0.0 | |||||||
| 08 | 16:55 | SW 9 | 10.00 | Fair | CLR | 57.2 | 28.4 | 33% | 29.69 | 0.0 | |||||||
| 08 | 16:35 | SW 6 | 10.00 | Fair | CLR | 55.4 | 28.4 | 36% | 29.7 | 0.0 | |||||||
| 08 | 16:15 | W 8 | 10.00 | Fair | CLR | 53.6 | 28.4 | 38% | 29.7 | 0.0 | |||||||
| 08 | 15:55 | Vrbl 7 | 10.00 | Fair | CLR | 53.6 | 28.4 | 38% | 29.71 | 0.0 | |||||||
| 08 | 15:35 | W 7 | 10.00 | Fair | CLR | 51.8 | 30.2 | 44% | 29.72 | 0.0 | |||||||
| 08 | 15:15 | W 7 | 10.00 | Fair | CLR | 51.8 | 30.2 | 44% | 29.73 | 0.0 | |||||||
| 08 | 14:55 | SW 8 | 10.00 | Fair | CLR | 51.8 | 32 | 47% | 29.73 | 0.0 | |||||||
| 08 | 14:35 | SW 12 | 10.00 | Fair | CLR | 50 | 33.8 | 54% | 46 | 29.74 | 0.0 | ||||||
| 08 | 14:15 | SW 14 | 10.00 | Fair | CLR | 50 | 33.8 | 54% | 45 | 29.75 | 0.0 | ||||||
| 08 | 13:55 | SW 15 | 10.00 | Fair | CLR | 50 | 32 | 52.3 | 39.6 | 50% | 45 | 29.75 | 0.0 | ||||
| 08 | 13:35 | W 13 G 17 | 10.00 | Fair | CLR | 51.8 | 32 | 47% | 29.75 | 0.0 | |||||||
| 08 | 13:15 | SW 12 | 10.00 | Fair | CLR | 50 | 32 | 50% | 46 | 29.75 | 0.0 | ||||||
| 08 | 12:55 | W 10 | 10.00 | Fair | CLR | 51.8 | 33.8 | 50% | 29.76 | 0.0 | |||||||
| 08 | 12:35 | W 14 | 10.00 | Fair | CLR | 50 | 33.8 | 54% | 45 | 29.76 | 0.0 | ||||||
| 08 | 12:15 | W 12 | 10.00 | Fair | CLR | 50 | 33.8 | 54% | 46 | 29.76 | 0.0 | ||||||
| 08 | 11:55 | W 12 | 10.00 | Fair | CLR | 50 | 33.8 | 54% | 46 | 29.77 | 0.0 | ||||||
| 08 | 11:35 | W 10 | 10.00 | Fair | CLR | 48.2 | 33.8 | 58% | 44 | 29.77 | 0.0 | ||||||
| 08 | 11:15 | W 8 | 10.00 | Fair | CLR | 50 | 33.8 | 54% | 47 | 29.77 | 0.0 | ||||||
| 08 | 10:55 | Vrbl 7 | 10.00 | Fair | CLR | 48.2 | 33.8 | 58% | 46 | 29.78 | 0.0 | ||||||
| 08 | 10:35 | SW 6 | 10.00 | Fair | CLR | 46.4 | 33.8 | 62% | 44 | 29.78 | 0.0 | ||||||
| 08 | 10:15 | W 9 | 10.00 | Fair | CLR | 46.4 | 33.8 | 62% | 42 | 29.79 | 0.0 | ||||||
| 08 | 09:55 | W 10 | 10.00 | Partly Cloudy | SCT085 | 46.4 | 33.8 | 62% | 42 | 29.79 | 0.0 | ||||||
| 08 | 09:35 | SW 9 | 10.00 | Mostly Cloudy | BKN085 | 44.6 | 33.8 | 66% | 40 | 29.79 | 0.0 | ||||||
| 08 | 09:15 | SW 7 | 10.00 | Mostly Cloudy | FEW075 BKN085 | 44.6 | 33.8 | 66% | 41 | 29.79 | 0.0 | ||||||
| 08 | 08:55 | SW 7 | 10.00 | Partly Cloudy | SCT085 | 44.6 | 33.8 | 66% | 41 | 29.79 | 0.0 | ||||||
| 08 | 08:35 | SW 8 | 10.00 | A Few Clouds | FEW085 | 42.8 | 33.8 | 71% | 39 | 29.79 | 0.0 | ||||||
| 08 | 08:15 | SW 5 | 10.00 | A Few Clouds | FEW085 | 41 | 33.8 | 76% | 38 | 29.79 | 0.0 | ||||||
| 08 | 07:55 | SW 6 | 10.00 | Fair | CLR | 39.2 | 33.8 | 39.6 | 28 | 81% | 36 | 29.78 | 0.0 | ||||
| 08 | 07:35 | Vrbl 3 | 10.00 | Partly Cloudy | FEW070 SCT090 | 37.4 | 33.8 | 87% | 29.78 | 0.0 | |||||||
| 08 | 07:15 | SW 3 | 10.00 | Mostly Cloudy | BKN070 | 33.8 | 32 | 93% | 29.79 | 0.0 | |||||||
| 08 | 06:55 | SW 2 | 10.00 | Overcast | OVC070 | 32 | 30.2 | 93% | 29.79 | 0.0 | |||||||
| 08 | 06:35 | W 2 | 10.00 | Mostly Cloudy | BKN070 | 33.8 | 32 | 93% | 29.79 | 0.0 | |||||||
| 08 | 06:15 | Vrbl 3 | 6.00 | Fog/Mist | FEW060 FEW070 FEW090 | 28.4 | 28.4 | 100% | 29.79 | 0.0 | |||||||
| 08 | 05:55 | W 2 | 9.00 | A Few Clouds | FEW070 FEW090 | 32 | 30.2 | 93% | 29.79 | 0.0 | |||||||
| 08 | 05:35 | SW 3 | 10.00 | Mostly Cloudy | BKN070 BKN080 | 32 | 30.2 | 93% | 29.79 | 0.0 | |||||||
| 08 | 05:15 | SW 5 | 10.00 | Mostly Cloudy | FEW060 SCT070 BKN080 | 32 | 30.2 | 93% | 28 | 29.79 | 0.0 | ||||||
| 08 | 04:55 | Vrbl 2 | 10.00 | Mostly Cloudy | FEW060 BKN090 | 32 | 32 | 100% | 29.8 | 0.0 | |||||||
| 08 | 04:35 | SW 5 | 10.00 | Overcast | OVC090 | 32 | 30.2 | 93% | 28 | 29.8 | 0.0 | ||||||
| 08 | 04:15 | W 1 | 8.00 | Overcast | OVC090 | 32 | 30.2 | 93% | 29.8 | 0.0 | |||||||
| 08 | 03:55 | Calm | 10.00 | Mostly Cloudy | BKN090 | 32 | 30.2 | 93% | 29.8 | 0.0 | |||||||
| 08 | 03:35 | W 2 | 10.00 | A Few Clouds | FEW090 | 33.8 | 33.8 | 100% | 29.81 | 0.0 | |||||||
| 08 | 03:15 | SW 5 | 10.00 | A Few Clouds | FEW100 | 33.8 | 32 | 93% | 30 | 29.81 | 0.0 | ||||||
| 08 | 02:55 | SW 7 | 10.00 | Overcast | OVC100 | 37.4 | 33.8 | 87% | 33 | 29.82 | 0.0 | ||||||
| 08 | 02:35 | SW 6 | 10.00 | Overcast | OVC100 | 37.4 | 33.8 | 87% | 33 | 29.82 | 0.0 | ||||||
| 08 | 02:15 | SW 5 | 10.00 | Overcast | FEW060 FEW080 OVC100 | 37.4 | 33.8 | 87% | 34 | 29.82 | 0.0 | ||||||
| 08 | 01:55 | SW 6 | 10.00 | Overcast | SCT080 BKN085 OVC110 | 37.4 | 32 | 41 | 36.5 | 81% | 33 | 29.83 | 0.0 | ||||
| 08 | 01:35 | SW 3 | 10.00 | Overcast | SCT080 BKN085 OVC110 | 37.4 | 32 | 81% | 29.84 | 0.0 | |||||||
| 08 | 01:15 | SW 6 | 10.00 | Mostly Cloudy | BKN075 | 37.4 | 32 | 81% | 33 | 29.85 | 0.0 | ||||||
| 08 | 00:55 | SW 7 | 10.00 | Partly Cloudy | FEW070 SCT080 SCT100 | 39.2 | 32 | 75% | 35 | 29.85 | 0.0 | ||||||
| 08 | 00:35 | W 10 | 10.00 | Mostly Cloudy | BKN080 BKN100 | 37.4 | 30.2 | 75% | 31 | 29.85 | 0.0 | ||||||
| 08 | 00:15 | SW 7 | 10.00 | Fair | CLR | 37.4 | 30.2 | 75% | 33 | 29.84 | 0.0 | ||||||
| 07 | 23:55 | SW 6 | 10.00 | Fair | CLR | 37.4 | 30.2 | 75% | 33 | 29.84 | 0.0 | ||||||
| 07 | 23:35 | SW 8 | 10.00 | Fair | CLR | 39.2 | 28.4 | 65% | 34 | 29.84 | 0.0 | ||||||
| 07 | 23:15 | SW 9 | 10.00 | Fair | CLR | 39.2 | 30.2 | 70% | 34 | 29.84 | 0.0 | ||||||
| 07 | 22:55 | SW 8 | 10.00 | Fair | CLR | 39.2 | 30.2 | 70% | 34 | 29.84 | 0.0 | ||||||
| 07 | 22:35 | SW 9 | 10.00 | Partly Cloudy | SCT110 | 39.2 | 28.4 | 65% | 34 | 29.84 | 0.0 | ||||||
| 07 | 22:15 | SW 9 | 10.00 | Partly Cloudy | SCT110 | 39.2 | 28.4 | 65% | 34 | 29.84 | 0.0 | ||||||
| 07 | 21:55 | SW 7 | 10.00 | Partly Cloudy | SCT110 | 37.4 | 28.4 | 70% | 33 | 29.84 | 0.0 | ||||||
| 07 | 21:35 | SW 6 | 10.00 | Overcast | OVC100 | 39.2 | 30.2 | 70% | 36 | 29.83 | 0.0 | ||||||
| 07 | 21:15 | W 7 | 10.00 | Overcast | OVC100 | 37.4 | 30.2 | 75% | 33 | 29.83 | 0.0 | ||||||
| 07 | 20:55 | W 3 | 10.00 | Overcast | FEW060 SCT070 OVC100 | 39.2 | 32 | 75% | 29.84 | 0.0 | |||||||
| 07 | 20:35 | N 5 | 10.00 | Overcast | SCT055 OVC080 | 39.2 | 32 | 75% | 36 | 29.84 | 0.0 | ||||||
| 07 | 20:15 | W 10 | 10.00 | Overcast | BKN055 BKN075 OVC090 | 39.2 | 30.2 | 70% | 33 | 29.85 | 0.0 | ||||||
| 07 | 19:55 | SW 8 | 10.00 | Overcast | BKN070 OVC100 | 41 | 28.4 | 49.5 | 40.8 | 61% | 36 | 29.83 | 0.0 | ||||
| 07 | 19:35 | SW 8 | 10.00 | Overcast | SCT070 OVC100 | 41 | 28.4 | 61% | 36 | 29.83 | 0.0 | ||||||
| 07 | 19:15 | SW 9 | 10.00 | Overcast | FEW070 OVC100 | 42.8 | 28.4 | 57% | 38 | 29.83 | 0.0 | ||||||
| 07 | 18:55 | SW 9 G 17 | 10.00 | Overcast | SCT070 OVC100 | 42.8 | 28.4 | 57% | 38 | 29.83 | 0.0 | ||||||
| 07 | 18:35 | SW 12 | 10.00 | Overcast | FEW070 OVC100 | 44.6 | 26.6 | 49% | 39 | 29.83 | 0.0 | ||||||
| 07 | 18:15 | SW 12 G 17 | 10.00 | Overcast | FEW065 OVC100 | 44.6 | 28.4 | 53% | 39 | 29.83 | 0.0 | ||||||
| 07 | 17:55 | SW 10 | 10.00 | Overcast | OVC090 | 44.6 | 28.4 | 53% | 40 | 29.83 | 0.0 | ||||||
| 07 | 17:35 | SW 9 G 16 | 10.00 | Overcast | OVC080 | 44.6 | 28.4 | 53% | 40 | 29.83 | 0.0 | ||||||
| 07 | 17:15 | SW 14 G 18 | 10.00 | Overcast | OVC080 | 42.8 | 26.6 | 53% | 36 | 29.83 | 0.0 | ||||||
| 07 | 16:55 | SW 12 | 10.00 | Overcast | FEW065 OVC080 | 44.6 | 28.4 | 53% | 39 | 29.83 | 0.0 | ||||||
| 07 | 16:35 | SW 13 G 17 | 10.00 | Overcast | SCT065 OVC080 | 44.6 | 28.4 | 53% | 39 | 29.84 | 0.0 | ||||||
| 07 | 16:15 | SW 14 G 18 | 10.00 | Overcast | BKN065 OVC080 | 44.6 | 28.4 | 53% | 39 | 29.84 | 0.0 | ||||||
| 07 | 15:55 | SW 10 G 17 | 10.00 | Overcast | FEW065 OVC080 | 44.6 | 26.6 | 49% | 40 | 29.84 | 0.0 | ||||||
| 07 | 15:35 | SW 10 G 17 | 10.00 | Overcast | FEW065 OVC080 | 44.6 | 28.4 | 53% | 40 | 29.84 | 0.0 | ||||||
| 07 | 15:15 | W 14 G 20 | 10.00 | Overcast | OVC080 | 46.4 | 26.6 | 46% | 41 | 29.84 | 0.0 | ||||||
| 07 | 14:55 | W 15 G 21 | 10.00 | Overcast | OVC080 | 48.2 | 26.6 | 43% | 43 | 29.84 | 0.0 | ||||||
| 07 | 14:35 | SW 16 G 22 | 10.00 | Overcast | OVC080 | 48.2 | 26.6 | 43% | 43 | 29.84 | 0.0 | ||||||
| 07 | 14:15 | SW 12 | 10.00 | Overcast | OVC080 | 46.4 | 28.4 | 50% | 42 | 29.85 | 0.0 | ||||||
| 07 | 13:55 | SW 13 G 18 | 10.00 | Overcast | OVC080 | 46.4 | 26.6 | 49.1 | 33.8 | 46% | 41 | 29.85 | 0.0 | ||||
| 07 | 13:35 | W 12 | 10.00 | Overcast | OVC080 | 48.2 | 26.6 | 43% | 44 | 29.85 | 0.0 | ||||||
| 07 | 13:15 | W 14 | 10.00 | Overcast | OVC080 | 46.4 | 26.6 | 46% | 41 | 29.86 | 0.0 | ||||||
| 07 | 12:55 | SW 13 | 10.00 | Overcast | OVC080 | 48.2 | 28.4 | 46% | 43 | 29.86 | 0.0 | ||||||
| 07 | 12:35 | SW 9 | 10.00 | Overcast | OVC080 | 46.4 | 28.4 | 50% | 42 | 29.87 | 0.0 | ||||||
| 07 | 12:15 | W 12 | 10.00 | Overcast | FEW048 FEW065 OVC080 | 46.4 | 28.4 | 50% | 42 | 29.88 | 0.0 | ||||||
| 07 | 11:55 | W 10 G 17 | 10.00 | Overcast | SCT046 BKN065 OVC080 | 42.8 | 30.2 | 61% | 38 | 29.89 | 0.0 | ||||||
| 07 | 11:35 | W 13 | 10.00 | Overcast | SCT047 BKN055 OVC070 | 42.8 | 32 | 66% | 37 | 29.89 | 0.0 | ||||||
| 07 | 11:15 | SW 9 | 10.00 | Overcast | SCT045 BKN055 OVC070 | 42.8 | 32 | 66% | 38 | 29.89 | 0.0 | ||||||
| 07 | 10:55 | SW 7 | 10.00 | Overcast | SCT050 OVC070 | 41 | 32 | 70% | 37 | 29.89 | 0.0 | ||||||
| Date | Time (edt) | Wind (mph) | Vis. (mi.) | Weather | Sky Cond. | Air | Dwpt | Max. | Min. | Relative Humidity | Wind Chill (°F) | Heat Index (°F) | altimeter (in) | sea level (mb) | 1 hr | 3 hr | 6 hr |
| 6 hour | |||||||||||||||||
| Temperature (ºF) | Pressure | Precipitation (in) | |||||||||||||||